Ketchikan International Airport Ketchikan US
ICAO: PAKT
IATA: KTN
Category: Medium
Scheduled Services:

Elevation: 89 ft
TransAlt. 18000 ft.

Airport Communications:
ATIS:119.9
ANCHORAGE CNTR:118.5
CTAF:123.6
RDO:123.6
UNICOM:122.95

PAKT Zoom In..

Runways:

(A) RW 11 length 7500 ft width 150 ft
ILS 109.30 / hdg 115

(B) RW 29 length 7500 ft width 150 ft
---- / hdg 295

Location; PAKT
Day. 20 / Time. 19.53 Zulu
* Altimeter: 30.19
* Temperature: 19° c. 66.2°f.
* Wind from: PAK° Speed T kn.
Dewpoint: 11° c.
Visibility: 10 Statute Miles.
Clouds: Few 4000 ft.

PAKT 201953Z 31009KT 10SM FEW040 19/11 A3019 RMK AO2 SLP222 HARBOR WND 30015KT T01940106


Wind From PAK°
Speed T kn.

 
 
jpsmedia.com for Web Design worldairports.se 2018   terms of use